Oronoco, MN

11:42 AM CST on February 13, 2016 (GMT -0600)
Zumbro Hills | | Change Station
CLOSE
Current Station
Personal Weather Station
Location: Oronoco, MN
Elevation: 988 ft
Nearby Weather Stations

Elev 988 ft 44.15 °N, 92.54 °W | Updated 1 second ago

Clear
Clear
7.3 °F
Feels Like 0 °F
N
4.0
Wind Variable Wind from South
Gusts 4.0 mph

Today
High -- | Low -- °F
--% Chance of Precip.
Yesterday
High -- | Low -- °F
Precip. -- in
Pressure 30.58 in
Visibility 10.0 miles
Clouds Clear
Windchill 0 °F
Dew Point -6 °F
Humidity 54%
Rainfall in
Snow Depth Not available.
7:13 AM 5:36 PM
Waxing Crescent, 32% visible
METAR K9MN 131732Z AUTO 28003KT 10SM CLR M15/M22 A3058 RMK AO1 T11481220
Pressure 30.58 in
Visibility 10.0 miles
Clouds Clear
Windchill 0 °F
Dew Point -6 °F
Humidity 54%
Rainfall in
Snow Depth Not available.
7:13 AM 5:36 PM
Waxing Crescent, 32% visible
METAR K9MN 131732Z AUTO 28003KT 10SM CLR M15/M22 A3058 RMK AO1 T11481220

10-Day Weather Forecast

Almanac

Astronomy

Feb. 13, 2016 Rise Set
Actual Time
Civil Twilight
Nautical Twilight
Astronomical Twilight
Moon
Length of Visible Light
Length of Day
Tomorrow will be .
, % of the Moon is Illuminated

Today's Extremes

State Highs State Lows

Community

WunderPhotos

Upload Photos

1,892,623 photos uploaded!

WunderBlog® & News

Nearby

Air Quality

  Air Quality AQ Index Pollutant
Not available.

Snow Depth

Station Depth Elevation

Earthquake Activity

City Distance Mag. Time & Date
Minimum magnitude displayed is 2.5.

Coastal Water Temperatures

Place Temperature

Stations

Nearby Weather Stations

Station Location Temp. Windchill Dew Point Humidity Wind Precip. Elev Updated Type
                   

Watches & Warnings

There are currently no watches in effect.